createdAt,value
2022-10-09T09:15:08.817Z,23.17
2022-10-09T09:17:45.274Z,23.53
2022-10-09T09:20:16.655Z,22.78
2022-10-09T09:22:47.946Z,22.43
2022-10-09T09:25:20.146Z,22.20
2022-10-09T09:27:47.716Z,21.76
2022-10-09T09:30:19.593Z,21.41
2022-10-09T09:33:13.036Z,21.36
2022-10-09T09:35:49.600Z,21.38
2022-10-09T09:38:19.835Z,21.45
2022-10-09T09:40:47.599Z,21.52
2022-10-09T09:43:23.263Z,21.71
2022-10-09T09:45:55.750Z,21.84
2022-10-09T09:48:33.799Z,21.83
2022-10-09T09:51:26.711Z,21.81
2022-10-09T09:53:56.518Z,21.84
2022-10-09T09:56:59.859Z,21.99
2022-10-09T09:59:40.168Z,22.16
2022-10-09T10:02:24.127Z,22.26
2022-10-09T10:04:59.177Z,22.46
2022-10-09T10:07:35.006Z,22.50
2022-10-09T10:10:22.494Z,22.48
2022-10-09T10:12:53.333Z,22.40
2022-10-09T10:15:38.451Z,22.30
2022-10-09T10:18:06.024Z,22.23
2022-10-09T10:20:35.892Z,22.24
2022-10-09T10:23:02.937Z,22.29
2022-10-09T10:25:32.654Z,22.37
2022-10-09T10:28:13.384Z,22.34
2022-10-09T10:30:42.759Z,22.31
2022-10-09T10:33:24.883Z,22.19
2022-10-09T10:35:53.168Z,22.20
2022-10-09T10:38:41.192Z,22.25
2022-10-09T10:41:31.105Z,22.18
2022-10-09T10:44:07.834Z,22.20
2022-10-09T10:46:42.093Z,22.21
2022-10-09T10:49:09.665Z,22.21
2022-10-09T10:51:45.778Z,22.14
2022-10-09T10:54:16.779Z,22.16
2022-10-09T10:57:20.390Z,22.22
2022-10-09T10:59:49.118Z,22.32
2022-10-09T11:03:07.661Z,22.22
2022-10-09T11:05:47.694Z,22.13
2022-10-09T11:08:31.327Z,22.10
2022-10-09T11:11:23.406Z,22.00
2022-10-09T11:13:56.671Z,21.93
2022-10-09T11:16:39.727Z,21.97
2022-10-09T11:19:06.811Z,22.08
2022-10-09T11:21:53.155Z,22.13
2022-10-09T11:24:47.368Z,22.19
2022-10-09T11:27:19.271Z,22.21
2022-10-09T11:30:01.042Z,22.24
2022-10-09T11:32:32.076Z,22.31
2022-10-09T11:35:40.323Z,22.36
2022-10-09T11:38:25.468Z,22.42
2022-10-09T11:40:53.098Z,22.54
2022-10-09T11:43:26.010Z,22.64
2022-10-09T11:46:22.305Z,22.71
2022-10-09T11:49:05.161Z,22.76
2022-10-09T11:52:09.777Z,22.87
2022-10-09T11:54:37.091Z,22.87
2022-10-09T11:57:11.644Z,22.80
2022-10-09T11:59:45.238Z,22.83
2022-10-09T12:02:24.028Z,22.87
2022-10-09T12:04:56.178Z,22.87
2022-10-09T12:07:35.958Z,22.83
2022-10-09T12:10:06.149Z,22.80
2022-10-09T12:12:34.988Z,22.80
2022-10-09T12:15:24.547Z,22.80
2022-10-09T12:17:52.234Z,22.82
2022-10-09T12:20:21.719Z,22.86
2022-10-09T12:23:14.311Z,22.90
2022-10-09T12:25:44.271Z,22.95
2022-10-09T12:28:46.566Z,22.99
2022-10-09T12:31:30.878Z,22.99
2022-10-09T12:34:18.989Z,22.89
2022-10-09T12:36:45.913Z,23.00
2022-10-09T12:39:23.707Z,22.99
2022-10-09T12:41:52.397Z,22.89
2022-10-09T12:44:29.344Z,22.91
2022-10-09T12:47:05.840Z,22.85
2022-10-09T12:49:32.816Z,22.86
2022-10-09T12:52:00.529Z,23.05
2022-10-09T12:54:28.844Z,23.17
2022-10-09T12:56:56.894Z,23.25
2022-10-09T12:59:25.161Z,23.36
2022-10-09T13:01:55.532Z,23.35
2022-10-09T13:04:28.316Z,23.29
2022-10-09T13:06:56.900Z,23.26
2022-10-09T13:09:37.753Z,23.27
2022-10-09T13:12:09.589Z,23.30
2022-10-09T13:15:04.335Z,23.30
2022-10-09T13:17:37.239Z,23.31
2022-10-09T13:20:30.889Z,23.30
2022-10-09T13:22:59.415Z,23.26
2022-10-09T13:25:33.095Z,23.24
2022-10-09T13:28:00.250Z,23.25
2022-10-09T13:30:28.524Z,23.26
2022-10-09T13:32:55.723Z,23.17
2022-10-09T13:35:22.758Z,23.06
2022-10-09T13:37:49.943Z,22.98
2022-10-09T13:40:20.005Z,22.98
2022-10-09T13:42:52.131Z,22.96
2022-10-09T13:45:19.141Z,22.92
2022-10-09T13:47:46.454Z,22.88
2022-10-09T13:50:14.373Z,22.84
2022-10-09T13:52:41.280Z,22.80
2022-10-09T13:55:08.801Z,22.73
2022-10-09T13:57:36.636Z,22.64
2022-10-09T14:00:07.151Z,22.60
2022-10-09T14:02:34.579Z,22.56
2022-10-09T14:05:01.587Z,22.49
2022-10-09T14:07:30.396Z,22.42
2022-10-09T14:09:57.613Z,22.39
2022-10-09T14:12:24.974Z,22.35
2022-10-09T14:14:54.203Z,22.31
2022-10-09T14:17:21.415Z,22.24
2022-10-09T14:19:48.497Z,22.20
2022-10-09T14:22:15.570Z,22.14
2022-10-09T14:24:43.635Z,22.00
2022-10-09T14:27:11.021Z,21.95
2022-10-09T14:29:38.591Z,21.95
2022-10-09T14:32:05.962Z,21.98
2022-10-09T14:34:34.573Z,22.04
2022-10-09T14:37:04.905Z,21.96
2022-10-09T14:39:34.517Z,21.95
2022-10-09T14:42:01.862Z,21.90
2022-10-09T14:44:31.685Z,21.84
2022-10-09T14:46:59.336Z,21.77
2022-10-09T14:49:26.240Z,21.75
2022-10-09T14:51:54.297Z,21.72
2022-10-09T14:54:23.790Z,21.73
2022-10-09T14:56:50.882Z,21.68
2022-10-09T14:59:17.918Z,21.59
2022-10-09T15:01:44.929Z,21.58
2022-10-09T15:04:14.248Z,21.54
2022-10-09T15:06:41.223Z,21.51
2022-10-09T15:09:08.141Z,21.53
2022-10-09T15:11:35.359Z,21.52
2022-10-09T15:14:02.844Z,21.50
2022-10-09T15:16:30.195Z,21.47
2022-10-09T15:18:57.146Z,21.43
2022-10-09T15:21:29.430Z,21.41
2022-10-09T15:23:57.267Z,21.42
2022-10-09T15:26:25.722Z,21.42
2022-10-09T15:28:52.769Z,21.41
2022-10-09T15:31:22.826Z,21.38
2022-10-09T15:33:54.251Z,21.41
2022-10-09T15:36:25.431Z,21.40
2022-10-09T15:38:52.642Z,21.36
2022-10-09T15:41:24.721Z,21.39
2022-10-09T15:43:52.592Z,21.33
2022-10-09T15:46:19.542Z,21.29
2022-10-09T15:48:47.965Z,21.32
2022-10-09T15:51:15.112Z,21.34
2022-10-09T15:53:43.256Z,21.34
2022-10-09T15:56:12.418Z,21.33
2022-10-09T15:58:39.371Z,21.35
2022-10-09T16:01:08.694Z,21.33
2022-10-09T16:03:37.226Z,21.31
2022-10-09T16:06:05.838Z,21.31
2022-10-09T16:08:32.853Z,21.22
2022-10-09T16:10:59.900Z,21.09
2022-10-09T16:13:28.302Z,21.05
2022-10-09T16:15:55.451Z,21.12
2022-10-09T16:18:23.201Z,21.08
2022-10-09T16:20:50.710Z,21.14
2022-10-09T16:23:17.804Z,21.16
2022-10-09T16:25:45.406Z,21.21
2022-10-09T16:28:17.198Z,21.26
2022-10-09T16:30:45.644Z,21.25
2022-10-09T16:33:13.098Z,21.26
2022-10-09T16:35:40.403Z,21.24
2022-10-09T16:38:07.309Z,21.13
2022-10-09T16:41:00.942Z,21.01
2022-10-09T16:43:21.664Z,21.13
2022-10-09T16:45:49.695Z,21.20
2022-10-09T16:48:16.591Z,21.29
2022-10-09T16:50:43.688Z,21.34
2022-10-09T16:53:10.734Z,21.38
2022-10-09T16:55:38.068Z,21.45
2022-10-09T16:58:05.248Z,21.51
2022-10-09T17:00:32.595Z,21.53
2022-10-09T17:02:59.522Z,21.61
2022-10-09T17:05:26.820Z,21.67
2022-10-09T17:07:54.606Z,21.72
2022-10-09T17:10:21.627Z,21.76
2022-10-09T17:12:48.504Z,21.79
2022-10-09T17:15:15.588Z,21.78
2022-10-09T17:17:44.117Z,21.75
2022-10-09T17:20:11.077Z,21.63
2022-10-09T17:22:38.047Z,21.54
2022-10-09T17:25:06.339Z,21.46
2022-10-09T17:27:33.533Z,21.34
2022-10-09T17:30:00.484Z,21.26
2022-10-09T17:32:27.463Z,21.07
2022-10-09T17:34:54.289Z,20.93
2022-10-09T17:37:21.701Z,20.90
2022-10-09T17:39:52.022Z,20.87
2022-10-09T17:42:19.433Z,20.92
2022-10-09T17:44:46.975Z,20.92
2022-10-09T17:47:13.953Z,20.94
2022-10-09T17:49:41.243Z,20.98
2022-10-09T17:52:08.229Z,21.04
2022-10-09T17:54:35.112Z,21.08
2022-10-09T17:57:05.298Z,21.05
2022-10-09T17:59:34.439Z,21.12
2022-10-09T18:02:01.341Z,21.33
2022-10-09T18:04:28.726Z,21.37
2022-10-09T18:06:55.643Z,21.35
2022-10-09T18:09:22.537Z,21.39
2022-10-09T18:11:49.427Z,21.48
2022-10-09T18:14:16.363Z,21.48
2022-10-09T18:16:44.383Z,21.51
2022-10-09T18:19:13.170Z,21.52
2022-10-09T18:21:43.649Z,21.44
2022-10-09T18:24:11.065Z,21.45
2022-10-09T18:26:38.020Z,21.51
2022-10-09T18:29:05.290Z,21.50
2022-10-09T18:31:32.331Z,21.50
2022-10-09T18:33:59.560Z,21.46
2022-10-09T18:36:31.415Z,21.50
2022-10-09T18:39:00.913Z,21.45
2022-10-09T18:41:27.901Z,21.28
2022-10-09T18:43:55.094Z,21.25
2022-10-09T18:46:24.731Z,21.21
2022-10-09T18:48:51.616Z,21.11
2022-10-09T18:51:20.378Z,21.04
2022-10-09T18:53:49.749Z,20.96
2022-10-09T18:56:17.325Z,20.80
2022-10-09T18:58:44.230Z,20.72
2022-10-09T19:01:11.229Z,20.64
2022-10-09T19:03:38.095Z,20.59
2022-10-09T19:06:06.132Z,20.55
2022-10-09T19:08:36.549Z,20.55
2022-10-09T19:11:04.327Z,20.56
2022-10-09T19:13:31.200Z,20.59
2022-10-09T19:16:00.278Z,20.58
2022-10-09T19:18:27.380Z,20.38
2022-10-09T19:20:54.250Z,20.26
2022-10-09T19:23:22.133Z,20.27
2022-10-09T19:25:50.317Z,20.31
2022-10-09T19:28:17.500Z,20.38
2022-10-09T19:30:45.135Z,20.49
2022-10-09T19:33:12.938Z,20.48
2022-10-09T19:35:46.374Z,20.41
2022-10-09T19:38:13.602Z,20.25
2022-10-09T19:40:40.538Z,20.15
2022-10-09T19:43:07.634Z,20.06
2022-10-09T19:45:34.999Z,20.17
2022-10-09T19:48:01.973Z,20.07
2022-10-09T19:50:29.346Z,20.02
2022-10-09T19:52:56.454Z,20.07
2022-10-09T19:55:26.497Z,20.04
2022-10-09T19:57:56.104Z,20.00
2022-10-09T20:00:23.042Z,19.97
2022-10-09T20:02:50.098Z,19.95
2022-10-09T20:05:17.565Z,19.91
2022-10-09T20:07:44.596Z,19.89
2022-10-09T20:10:11.509Z,19.78
2022-10-09T20:12:38.551Z,19.54
2022-10-09T20:15:07.262Z,19.41
2022-10-09T20:17:35.199Z,19.28
2022-10-09T20:20:04.681Z,19.17
2022-10-09T20:22:32.059Z,19.02
2022-10-09T20:24:59.127Z,18.94
2022-10-09T20:27:26.059Z,18.94
2022-10-09T20:29:54.104Z,18.95
2022-10-09T20:32:25.607Z,18.96
2022-10-09T20:34:54.176Z,18.91
2022-10-09T20:37:21.067Z,18.94
2022-10-09T20:39:49.276Z,18.92
2022-10-09T20:42:18.364Z,18.87
2022-10-09T20:44:46.578Z,18.84
2022-10-09T20:47:15.201Z,18.76
2022-10-09T20:49:43.837Z,18.70
2022-10-09T20:52:10.686Z,18.63
2022-10-09T20:54:39.456Z,18.53
2022-10-09T20:57:06.394Z,18.40
2022-10-09T20:59:33.453Z,18.28
2022-10-09T21:02:02.730Z,18.23
2022-10-09T21:04:31.665Z,18.18
2022-10-09T21:06:58.612Z,18.13
2022-10-09T21:09:32.955Z,18.08
2022-10-09T21:12:03.736Z,18.02
2022-10-09T21:14:30.812Z,17.97
2022-10-09T21:16:57.830Z,17.93
2022-10-09T21:19:26.576Z,17.93
2022-10-09T21:21:53.599Z,17.92
2022-10-09T21:24:20.518Z,17.95
2022-10-09T21:26:48.985Z,18.02
2022-10-09T21:29:16.035Z,18.09
2022-10-09T21:31:43.039Z,18.17
2022-10-09T21:34:10.336Z,18.22
2022-10-09T21:37:15.951Z,18.25
2022-10-09T21:39:34.853Z,18.26
2022-10-09T21:42:01.885Z,18.27
2022-10-09T21:44:30.272Z,18.24
2022-10-09T21:46:57.134Z,18.24
2022-10-09T21:52:26.759Z,18.28
2022-10-09T21:54:53.653Z,18.22
2022-10-09T21:57:20.842Z,18.19
2022-10-09T21:59:48.545Z,18.09
2022-10-09T22:02:15.668Z,17.98
2022-10-09T22:04:42.597Z,17.95
2022-10-09T22:10:04.068Z,17.80
2022-10-09T22:12:34.090Z,17.71
2022-10-09T22:15:04.508Z,17.67
2022-10-09T22:17:35.066Z,17.61
2022-10-09T22:23:14.935Z,17.50
2022-10-09T22:28:30.897Z,17.35
2022-10-09T22:31:01.794Z,17.32
2022-10-09T22:33:29.131Z,17.25
2022-10-09T22:36:26.503Z,17.17
2022-10-09T22:38:55.484Z,17.01
2022-10-09T22:41:22.816Z,16.95
2022-10-09T22:43:51.655Z,16.92
2022-10-09T22:46:23.754Z,16.92
2022-10-09T22:48:51.087Z,16.94
2022-10-09T22:51:19.336Z,16.79
2022-10-09T22:53:46.693Z,16.73
2022-10-09T22:56:15.337Z,16.72
2022-10-09T22:58:42.925Z,16.79
2022-10-09T23:01:15.456Z,16.78
2022-10-09T23:06:39.320Z,16.83
2022-10-09T23:09:07.088Z,16.81
2022-10-09T23:11:35.965Z,16.77
2022-10-09T23:14:03.187Z,16.72
2022-10-09T23:19:26.867Z,16.69
2022-10-09T23:21:53.914Z,16.64
2022-10-09T23:24:20.828Z,16.61
2022-10-09T23:26:50.408Z,16.54
2022-10-09T23:29:18.612Z,16.57
2022-10-09T23:31:45.547Z,16.45
2022-10-09T23:34:13.385Z,16.40
2022-10-09T23:36:40.944Z,16.35
2022-10-09T23:44:55.929Z,16.23
2022-10-09T23:47:22.838Z,16.26
2022-10-09T23:49:49.707Z,16.31
2022-10-09T23:52:17.078Z,16.36
2022-10-09T23:54:43.998Z,16.32
2022-10-09T23:57:11.160Z,16.32
2022-10-09T23:59:39.530Z,16.30
